Time;durP1;ratioP1;P1;durP2;ratioP2;P2;SDS_P1;SDS_P2;PMS_P1;PMS_P2;Temp;Humidity;BMP_temperature;BMP_pressure;BME280_temperature;BME280_humidity;BME280_pressure;Samples;Min_cycle;Max_cycle;Signal;HPM_P1;HPM_P2
2022/06/29 00:00:09;;;;;;;0.68;0.68;;;;;;;;;;5038241;28;20031;-75
2022/06/29 00:02:37;;;;;;;0.28;0.28;;;;;;;;;;5038158;28;20033;-74
2022/06/29 00:05:03;;;;;;;0.20;0.20;;;;;;;;;;5056003;28;20112;-76
2022/06/29 00:07:28;;;;;;;0.20;0.20;;;;;;;;;;5038488;28;20048;-75
2022/06/29 00:09:54;;;;;;;0.30;0.30;;;;;;;;;;5038136;28;20055;-75
2022/06/29 00:12:19;;;;;;;0.20;0.20;;;;;;;;;;5056029;28;20020;-74
2022/06/29 00:14:45;;;;;;;0.30;0.30;;;;;;;;;;5038298;28;20028;-74
2022/06/29 00:17:11;;;;;;;0.20;0.20;;;;;;;;;;5055842;28;20039;-77
2022/06/29 00:19:37;;;;;;;0.20;0.20;;;;;;;;;;5055672;28;20541;-74
2022/06/29 00:22:03;;;;;;;1.70;1.65;;;;;;;;;;5055747;28;20021;-75
2022/06/29 00:24:29;;;;;;;4.38;4.03;;;;;;;;;;5055685;28;20116;-76
2022/06/29 00:26:55;;;;;;;0.22;0.22;;;;;;;;;;5055236;28;20057;-76
2022/06/29 00:29:20;;;;;;;0.30;0.30;;;;;;;;;;5036849;28;20048;-75
2022/06/29 00:31:46;;;;;;;1.95;1.85;;;;;;;;;;5055657;28;20021;-75
2022/06/29 00:34:11;;;;;;;3.40;1.35;;;;;;;;;;5055354;28;20070;-75
2022/06/29 00:36:37;;;;;;;1.63;1.30;;;;;;;;;;5055552;28;20029;-76
2022/06/29 00:39:02;;;;;;;4.15;1.92;;;;;;;;;;5037745;28;20037;-76
2022/06/29 00:41:28;;;;;;;2.60;1.60;;;;;;;;;;5055436;28;20480;-76
2022/06/29 00:43:53;;;;;;;0.52;0.43;;;;;;;;;;5055483;28;20025;-76
2022/06/29 00:46:19;;;;;;;0.85;0.85;;;;;;;;;;5055564;28;20028;-77
2022/06/29 00:48:44;;;;;;;5.60;1.75;;;;;;;;;;5055100;28;20044;-74
2022/06/29 00:51:11;;;;;;;3.28;1.30;;;;;;;;;;5055412;28;20551;-76
2022/06/29 00:53:39;;;;;;;4.15;2.05;;;;;;;;;;5055519;28;20067;-75
2022/06/29 00:56:07;;;;;;;1.38;1.15;;;;;;;;;;5055315;28;20029;-75
2022/06/29 00:58:34;;;;;;;0.32;0.32;;;;;;;;;;5036836;28;20044;-78
2022/06/29 01:01:03;;;;;;;8.48;2.67;;;;;;;;;;5054777;28;20024;-75
2022/06/29 01:03:29;;;;;;;0.30;0.30;;;;;;;;;;5055038;28;20029;-74
2022/06/29 01:05:54;;;;;;;11.18;3.58;;;;;;;;;;5054860;28;20029;-76
2022/06/29 01:08:20;;;;;;;4.18;2.58;;;;;;;;;;5037337;28;20036;-75
2022/06/29 01:10:45;;;;;;;0.20;0.20;;;;;;;;;;5054895;28;20021;-74
2022/06/29 01:13:11;;;;;;;0.65;0.50;;;;;;;;;;5054809;28;20056;-76
2022/06/29 01:15:37;;;;;;;0.73;0.73;;;;;;;;;;5054760;28;20029;-77
2022/06/29 01:18:02;;;;;;;5.25;1.25;;;;;;;;;;5053895;28;20125;-75
2022/06/29 01:20:28;;;;;;;1.55;1.15;;;;;;;;;;5055012;28;20028;-76
2022/06/29 01:22:54;;;;;;;3.92;1.80;;;;;;;;;;5054528;28;20029;-76
2022/06/29 01:25:19;;;;;;;0.20;0.20;;;;;;;;;;5053713;28;20040;-78
2022/06/29 01:27:45;;;;;;;8.75;2.60;;;;;;;;;;5054452;28;20029;-76
2022/06/29 01:30:11;;;;;;;6.68;2.38;;;;;;;;;;5053086;28;20380;-77
2022/06/29 01:32:38;;;;;;;3.00;0.80;;;;;;;;;;5053471;28;20384;-76
2022/06/29 01:35:08;;;;;;;10.63;2.30;;;;;;;;;;5054341;28;20354;-76
2022/06/29 01:37:33;;;;;;;15.10;3.30;;;;;;;;;;5054210;28;20033;-78
2022/06/29 01:39:59;;;;;;;10.65;1.58;;;;;;;;;;5053970;28;20035;-74
2022/06/29 01:42:24;;;;;;;2.83;2.15;;;;;;;;;;5053460;28;20024;-75
2022/06/29 01:44:50;;;;;;;4.30;1.75;;;;;;;;;;5036317;28;20033;-74
2022/06/29 01:47:15;;;;;;;1.38;1.23;;;;;;;;;;5054073;28;20029;-75
2022/06/29 01:49:41;;;;;;;11.52;2.75;;;;;;;;;;5054014;28;20033;-75
2022/06/29 01:52:07;;;;;;;26.23;5.88;;;;;;;;;;5054264;28;20044;-75
2022/06/29 01:54:32;;;;;;;0.32;0.32;;;;;;;;;;5036302;28;20033;-76
2022/06/29 01:56:58;;;;;;;4.53;4.07;;;;;;;;;;5053343;28;20567;-74
2022/06/29 01:59:23;;;;;;;6.07;2.38;;;;;;;;;;5053832;28;20420;-75
2022/06/29 02:01:49;;;;;;;9.88;3.28;;;;;;;;;;5053811;28;20071;-76
2022/06/29 02:04:14;;;;;;;4.32;2.15;;;;;;;;;;5053620;28;20036;-74
2022/06/29 02:06:40;;;;;;;0.50;0.50;;;;;;;;;;5054025;28;20009;-75
2022/06/29 02:09:05;;;;;;;5.35;2.65;;;;;;;;;;5053674;28;20029;-76
2022/06/29 02:11:31;;;;;;;0.90;0.88;;;;;;;;;;5019583;28;20048;-74
2022/06/29 02:13:56;;;;;;;4.95;2.55;;;;;;;;;;5053720;28;20040;-75
2022/06/29 02:16:22;;;;;;;17.73;1.95;;;;;;;;;;5053870;28;20063;-75
2022/06/29 02:18:48;;;;;;;1.52;0.98;;;;;;;;;;5034484;28;20510;-75
2022/06/29 02:21:14;;;;;;;4.82;1.58;;;;;;;;;;5035708;28;20021;-75
2022/06/29 02:23:39;;;;;;;4.40;1.55;;;;;;;;;;5053656;28;20035;-76
2022/06/29 02:26:06;;;;;;;0.20;0.20;;;;;;;;;;5019469;28;20032;-76
2022/06/29 02:28:32;;;;;;;0.20;0.20;;;;;;;;;;5053679;28;20029;-78
2022/06/29 02:36:25;;;;;;;0.20;0.20;;;;;;;;;;5053443;28;20079;-76
2022/06/29 02:38:51;;;;;;;1.10;1.00;;;;;;;;;;5035679;28;20044;-77
2022/06/29 02:41:16;;;;;;;2.78;2.00;;;;;;;;;;5053347;28;20021;-76
2022/06/29 02:43:42;;;;;;;0.22;0.22;;;;;;;;;;5053154;28;20419;-76
2022/06/29 02:46:07;;;;;;;0.20;0.20;;;;;;;;;;5035248;28;20025;-75
2022/06/29 02:48:33;;;;;;;0.52;0.52;;;;;;;;;;5053133;28;20084;-75
2022/06/29 02:50:59;;;;;;;0.43;0.40;;;;;;;;;;5053588;28;20033;-76
2022/06/29 02:53:24;;;;;;;0.28;0.28;;;;;;;;;;5052827;28;20111;-77
2022/06/29 02:55:50;;;;;;;0.30;0.30;;;;;;;;;;5053218;28;20040;-76
2022/06/29 02:58:15;;;;;;;0.20;0.20;;;;;;;;;;5018343;28;20472;-76
2022/06/29 03:00:41;;;;;;;4.00;1.65;;;;;;;;;;5052868;28;20051;-76
2022/06/29 03:03:06;;;;;;;0.20;0.20;;;;;;;;;;5041490;28;20025;-77
2022/06/29 03:05:32;;;;;;;0.68;0.68;;;;;;;;;;5027467;28;20163;-74
2022/06/29 03:07:57;;;;;;;1.42;1.30;;;;;;;;;;5029697;28;20365;-77
2022/06/29 03:10:23;;;;;;;0.20;0.20;;;;;;;;;;5011704;28;20022;-75
2022/06/29 03:12:48;;;;;;;9.95;1.85;;;;;;;;;;5028352;28;20392;-77
2022/06/29 03:15:14;;;;;;;1.83;1.35;;;;;;;;;;5028742;28;20018;-76
2022/06/29 03:17:39;;;;;;;0.20;0.20;;;;;;;;;;5029426;28;20538;-76
2022/06/29 03:20:05;;;;;;;0.20;0.20;;;;;;;;;;5029297;28;20359;-74
2022/06/29 03:22:34;;;;;;;0.20;0.20;;;;;;;;;;5029549;28;20040;-74
2022/06/29 03:25:00;;;;;;;0.20;0.20;;;;;;;;;;5011879;28;20021;-74
2022/06/29 03:27:25;;;;;;;2.05;1.00;;;;;;;;;;5029233;28;20355;-74
2022/06/29 03:29:51;;;;;;;0.40;0.40;;;;;;;;;;5029438;28;20467;-75
2022/06/29 03:32:16;;;;;;;0.73;0.73;;;;;;;;;;5028799;28;20080;-74
2022/06/29 03:34:42;;;;;;;1.42;0.60;;;;;;;;;;5029108;28;20042;-75
2022/06/29 03:37:07;;;;;;;1.63;1.13;;;;;;;;;;5028958;28;20489;-75
2022/06/29 03:39:33;;;;;;;0.32;0.32;;;;;;;;;;5028561;28;20041;-75
2022/06/29 03:41:58;;;;;;;0.22;0.22;;;;;;;;;;5011316;28;20034;-75
2022/06/29 03:44:24;;;;;;;0.20;0.20;;;;;;;;;;5028967;28;20030;-76
2022/06/29 03:46:49;;;;;;;0.20;0.20;;;;;;;;;;5031377;28;20029;-76
2022/06/29 03:49:15;;;;;;;0.30;0.30;;;;;;;;;;5036305;28;20384;-76
2022/06/29 03:51:40;;;;;;;0.57;0.57;;;;;;;;;;5011521;28;20018;-75
2022/06/29 03:54:06;;;;;;;0.20;0.20;;;;;;;;;;5011322;28;20057;-74
2022/06/29 03:56:31;;;;;;;0.20;0.20;;;;;;;;;;5028859;28;20245;-85
2022/06/29 03:58:57;;;;;;;0.20;0.20;;;;;;;;;;5038125;28;20045;-73
2022/06/29 04:01:24;;;;;;;0.70;0.70;;;;;;;;;;5039395;28;20033;-76
2022/06/29 04:03:51;;;;;;;0.20;0.20;;;;;;;;;;5025253;28;20041;-73
2022/06/29 04:06:17;;;;;;;0.20;0.20;;;;;;;;;;5034857;28;20078;-75
2022/06/29 04:08:42;;;;;;;0.20;0.20;;;;;;;;;;5053322;28;20056;-74
2022/06/29 04:11:48;;;;;;;0.20;0.20;;;;;;;;;;5034568;28;20100;-74
2022/06/29 04:13:54;;;;;;;0.28;0.28;;;;;;;;;;5051977;28;20068;-85
2022/06/29 04:16:19;;;;;;;1.05;1.05;;;;;;;;;;5052479;28;20114;-74
2022/06/29 04:18:45;;;;;;;3.22;0.55;;;;;;;;;;5040471;28;20092;-74
2022/06/29 04:21:10;;;;;;;2.35;2.08;;;;;;;;;;5039962;28;20029;-85
2022/06/29 04:23:36;;;;;;;0.20;0.20;;;;;;;;;;5052499;28;20032;-74
2022/06/29 04:26:01;;;;;;;0.82;0.82;;;;;;;;;;5035974;28;20122;-76
2022/06/29 04:28:27;;;;;;;1.77;1.50;;;;;;;;;;5048495;28;20056;-74
2022/06/29 04:30:53;;;;;;;2.65;1.40;;;;;;;;;;5052178;28;20090;-76
2022/06/29 04:33:18;;;;;;;3.05;2.95;;;;;;;;;;5043601;28;20032;-74
2022/06/29 04:35:43;;;;;;;0.20;0.20;;;;;;;;;;5031801;28;20035;-85
2022/06/29 04:38:09;;;;;;;0.30;0.30;;;;;;;;;;5037247;28;20037;-74
2022/06/29 04:40:34;;;;;;;0.25;0.25;;;;;;;;;;5052519;28;20029;-75
2022/06/29 04:43:03;;;;;;;0.30;0.30;;;;;;;;;;5052979;28;20045;-74
2022/06/29 04:48:12;;;;;;;0.30;0.30;;;;;;;;;;5032258;28;20272;-75
2022/06/29 04:50:38;;;;;;;0.20;0.20;;;;;;;;;;5017072;28;20040;-73
2022/06/29 04:53:03;;;;;;;0.20;0.20;;;;;;;;;;5051610;28;20111;-74
2022/06/29 04:55:29;;;;;;;0.20;0.20;;;;;;;;;;5051213;28;20110;-77
2022/06/29 04:57:54;;;;;;;0.20;0.20;;;;;;;;;;5051300;28;20029;-75
2022/06/29 05:00:20;;;;;;;1.55;1.45;;;;;;;;;;5039311;28;20361;-74
2022/06/29 05:02:46;;;;;;;0.20;0.20;;;;;;;;;;5018154;28;20059;-73
2022/06/29 05:05:11;;;;;;;0.20;0.20;;;;;;;;;;5013938;28;20030;-87
2022/06/29 05:07:36;;;;;;;0.20;0.20;;;;;;;;;;5038054;28;20104;-74
2022/06/29 05:10:02;;;;;;;0.20;0.20;;;;;;;;;;5050778;28;20033;-81
2022/06/29 05:12:28;;;;;;;0.20;0.20;;;;;;;;;;5028726;28;20036;-74
2022/06/29 05:14:53;;;;;;;0.20;0.20;;;;;;;;;;5033479;28;20041;-74
2022/06/29 05:17:19;;;;;;;0.20;0.20;;;;;;;;;;5031086;28;20524;-74
2022/06/29 05:19:44;;;;;;;0.20;0.20;;;;;;;;;;5036437;28;20033;-75
2022/06/29 05:22:10;;;;;;;0.40;0.40;;;;;;;;;;5050931;28;20033;-74
2022/06/29 05:24:35;;;;;;;0.20;0.20;;;;;;;;;;5049876;28;20040;-74
2022/06/29 05:27:01;;;;;;;0.20;0.20;;;;;;;;;;5019194;28;20033;-74
2022/06/29 05:29:26;;;;;;;0.20;0.20;;;;;;;;;;5030917;28;20033;-82
2022/06/29 05:31:52;;;;;;;0.20;0.20;;;;;;;;;;5013838;28;20141;-72
2022/06/29 05:34:18;;;;;;;0.20;0.20;;;;;;;;;;5030830;28;20144;-74
2022/06/29 05:36:43;;;;;;;0.10;0.10;;;;;;;;;;5030521;28;20115;-77
2022/06/29 05:39:09;;;;;;;0.20;0.20;;;;;;;;;;5012725;28;20030;-78
2022/06/29 05:41:34;;;;;;;7.43;1.05;;;;;;;;;;5030026;28;20136;-75
2022/06/29 05:44:01;;;;;;;0.20;0.20;;;;;;;;;;5013009;28;20040;-80
2022/06/29 05:46:27;;;;;;;0.38;0.38;;;;;;;;;;5032103;28;20040;-76
2022/06/29 05:48:52;;;;;;;0.20;0.20;;;;;;;;;;5030940;28;20393;-75
2022/06/29 05:51:18;;;;;;;0.20;0.20;;;;;;;;;;5030595;28;20041;-81
2022/06/29 05:53:44;;;;;;;0.20;0.20;;;;;;;;;;5031182;28;20029;-76
2022/06/29 05:56:09;;;;;;;0.20;0.20;;;;;;;;;;5031876;28;20038;-75
2022/06/29 05:58:35;;;;;;;0.20;0.20;;;;;;;;;;5013526;28;20041;-74
2022/06/29 06:01:00;;;;;;;2.67;0.57;;;;;;;;;;5046992;28;20055;-73
2022/06/29 06:03:26;;;;;;;1.30;0.68;;;;;;;;;;5032511;28;20553;-75
2022/06/29 06:05:51;;;;;;;0.20;0.20;;;;;;;;;;5050845;28;20033;-74
2022/06/29 06:08:17;;;;;;;0.30;0.30;;;;;;;;;;5049895;28;20392;-75
2022/06/29 06:10:42;;;;;;;0.20;0.20;;;;;;;;;;5040957;28;20396;-76
2022/06/29 06:13:08;;;;;;;0.38;0.38;;;;;;;;;;5012577;28;20053;-74
2022/06/29 06:15:34;;;;;;;0.30;0.30;;;;;;;;;;5012695;28;20040;-74
2022/06/29 06:18:01;;;;;;;0.30;0.30;;;;;;;;;;5044574;28;20040;-77
2022/06/29 06:20:27;;;;;;;0.30;0.30;;;;;;;;;;5049968;28;20041;-74
2022/06/29 06:22:52;;;;;;;0.20;0.20;;;;;;;;;;5049598;28;20502;-73
2022/06/29 06:25:17;;;;;;;0.30;0.30;;;;;;;;;;5016388;28;20067;-76
2022/06/29 06:27:43;;;;;;;0.20;0.20;;;;;;;;;;5011985;28;20443;-72
2022/06/29 06:30:08;;;;;;;0.30;0.30;;;;;;;;;;5044185;28;20500;-77
2022/06/29 06:32:34;;;;;;;0.38;0.38;;;;;;;;;;5049503;28;20041;-72
2022/06/29 06:34:59;;;;;;;0.30;0.30;;;;;;;;;;5049145;28;20108;-75
2022/06/29 06:37:25;;;;;;;0.45;0.45;;;;;;;;;;5039770;28;20136;-75
2022/06/29 06:42:34;;;;;;;0.30;0.30;;;;;;;;;;5048764;28;20082;-73
2022/06/29 06:45:02;;;;;;;0.30;0.30;;;;;;;;;;5034483;28;20037;-74
2022/06/29 06:47:27;;;;;;;0.30;0.30;;;;;;;;;;5049088;28;20033;-82
2022/06/29 06:49:53;;;;;;;0.30;0.30;;;;;;;;;;5048842;28;20033;-73
2022/06/29 06:52:18;;;;;;;0.32;0.32;;;;;;;;;;5031152;28;20547;-73
2022/06/29 06:54:46;;;;;;;0.40;0.40;;;;;;;;;;5031249;28;20440;-74
2022/06/29 06:57:12;;;;;;;0.40;0.40;;;;;;;;;;5045637;28;20496;-74
2022/06/29 06:59:37;;;;;;;0.40;0.40;;;;;;;;;;5029147;28;20032;-76
2022/06/29 07:02:03;;;;;;;0.30;0.30;;;;;;;;;;5029870;28;20076;-75
2022/06/29 07:04:28;;;;;;;5.65;5.35;;;;;;;;;;5034500;28;20500;-74
2022/06/29 07:06:54;;;;;;;0.45;0.45;;;;;;;;;;5011668;28;20385;-74
2022/06/29 07:09:19;;;;;;;0.60;0.60;;;;;;;;;;5042889;28;20036;-73
2022/06/29 07:11:45;;;;;;;0.50;0.50;;;;;;;;;;5028681;28;20029;-75
2022/06/29 07:14:10;;;;;;;0.40;0.40;;;;;;;;;;5048697;28;20033;-74
2022/06/29 07:16:36;;;;;;;0.40;0.40;;;;;;;;;;5030775;28;20041;-74
2022/06/29 07:19:01;;;;;;;0.30;0.30;;;;;;;;;;5048791;28;20478;-72
2022/06/29 07:21:27;;;;;;;0.40;0.40;;;;;;;;;;5031307;28;20105;-73
2022/06/29 07:23:52;;;;;;;0.30;0.30;;;;;;;;;;5049077;28;20072;-75
2022/06/29 07:26:18;;;;;;;0.40;0.40;;;;;;;;;;5042575;28;20026;-76
2022/06/29 07:28:44;;;;;;;0.85;0.85;;;;;;;;;;5002121;28;20042;-74
2022/06/29 07:31:09;;;;;;;0.30;0.30;;;;;;;;;;5029014;28;20025;-75
2022/06/29 07:33:35;;;;;;;0.40;0.40;;;;;;;;;;5041404;28;20067;-73
2022/06/29 07:36:00;;;;;;;0.40;0.40;;;;;;;;;;5049088;28;20041;-73
2022/06/29 07:38:26;;;;;;;1.38;1.27;;;;;;;;;;5032385;28;20034;-74
2022/06/29 07:40:51;;;;;;;0.50;0.50;;;;;;;;;;5037598;28;20095;-74
2022/06/29 07:43:17;;;;;;;0.38;0.38;;;;;;;;;;5030157;28;20090;-75
2022/06/29 07:45:43;;;;;;;0.60;0.60;;;;;;;;;;5049258;28;20041;-74
2022/06/29 07:48:08;;;;;;;0.40;0.40;;;;;;;;;;5030537;28;20369;-72
2022/06/29 07:50:34;;;;;;;0.40;0.40;;;;;;;;;;5030533;28;20092;-75
2022/06/29 07:53:00;;;;;;;0.30;0.30;;;;;;;;;;5029249;28;20032;-75
2022/06/29 07:55:25;;;;;;;0.40;0.40;;;;;;;;;;5011758;28;20033;-74
2022/06/29 07:57:51;;;;;;;0.30;0.30;;;;;;;;;;4995829;28;20507;-72
2022/06/29 08:00:16;;;;;;;0.38;0.38;;;;;;;;;;5029714;28;20156;-73
2022/06/29 08:02:43;;;;;;;0.85;0.85;;;;;;;;;;5030220;28;20045;-73
2022/06/29 08:05:09;;;;;;;0.50;0.50;;;;;;;;;;5029788;28;20540;-77
2022/06/29 08:07:34;;;;;;;0.40;0.40;;;;;;;;;;5031344;28;20108;-74
2022/06/29 08:10:00;;;;;;;0.50;0.50;;;;;;;;;;5032239;28;20381;-74
2022/06/29 08:12:26;;;;;;;0.93;0.93;;;;;;;;;;5032640;28;20112;-75
2022/06/29 08:14:51;;;;;;;3.58;3.38;;;;;;;;;;5032417;28;20029;-76
2022/06/29 08:17:17;;;;;;;0.40;0.40;;;;;;;;;;5031473;28;20038;-75
2022/06/29 08:19:42;;;;;;;0.30;0.30;;;;;;;;;;5014491;28;20045;-75
2022/06/29 08:22:07;;;;;;;1.15;1.15;;;;;;;;;;5032434;28;20041;-74
2022/06/29 08:24:33;;;;;;;0.57;0.57;;;;;;;;;;5014277;28;20049;-74
2022/06/29 08:26:59;;;;;;;0.40;0.40;;;;;;;;;;5014465;28;20091;-74
2022/06/29 08:29:24;;;;;;;0.50;0.50;;;;;;;;;;5031772;28;20040;-75
2022/06/29 08:31:50;;;;;;;3.22;3.00;;;;;;;;;;5032094;28;20029;-74
2022/06/29 08:37:19;;;;;;;0.30;0.30;;;;;;;;;;4951923;29;20058;-74
2022/06/29 08:39:45;;;;;;;0.30;0.30;;;;;;;;;;4952298;29;20047;-75
2022/06/29 08:42:11;;;;;;;0.50;0.50;;;;;;;;;;4976042;28;20037;-74
2022/06/29 08:44:37;;;;;;;0.50;0.50;;;;;;;;;;5037010;28;20527;-73
2022/06/29 08:47:08;;;;;;;2.08;1.90;;;;;;;;;;5031948;28;20040;-73
2022/06/29 08:49:34;;;;;;;0.68;0.68;;;;;;;;;;5028581;28;20868;-73
2022/06/29 08:52:03;;;;;;;0.50;0.50;;;;;;;;;;5033185;28;20128;-74
2022/06/29 08:54:28;;;;;;;0.55;0.55;;;;;;;;;;5050977;28;20104;-73
2022/06/29 08:56:54;;;;;;;0.50;0.50;;;;;;;;;;5050328;28;20112;-74
2022/06/29 08:59:23;;;;;;;0.40;0.40;;;;;;;;;;5032436;28;20044;-74
2022/06/29 09:01:51;;;;;;;0.45;0.45;;;;;;;;;;5051524;28;20095;-76
2022/06/29 09:04:20;;;;;;;0.50;0.50;;;;;;;;;;5032955;28;20108;-74
2022/06/29 09:06:45;;;;;;;0.40;0.40;;;;;;;;;;5050569;28;20037;-75
2022/06/29 09:09:14;;;;;;;3.47;3.25;;;;;;;;;;5051439;28;20051;-76
2022/06/29 09:11:41;;;;;;;0.80;0.80;;;;;;;;;;5033425;28;20045;-76
2022/06/29 09:14:15;;;;;;;6.00;5.47;;;;;;;;;;5049010;28;20082;-77
2022/06/29 09:16:55;;;;;;;0.40;0.40;;;;;;;;;;5031504;28;20037;-77
2022/06/29 09:19:21;;;;;;;0.50;0.50;;;;;;;;;;5048849;28;20041;-74
2022/06/29 09:21:51;;;;;;;0.70;0.70;;;;;;;;;;5031116;28;20044;-74
2022/06/29 09:24:17;;;;;;;0.70;0.60;;;;;;;;;;5049202;28;20021;-76
2022/06/29 09:26:43;;;;;;;0.43;0.43;;;;;;;;;;5031136;28;20033;-74
2022/06/29 09:29:26;;;;;;;0.50;0.50;;;;;;;;;;5050616;28;20116;-74
2022/06/29 09:32:04;;;;;;;3.45;1.33;;;;;;;;;;5050909;28;20068;-74
2022/06/29 09:34:30;;;;;;;0.60;0.60;;;;;;;;;;5050819;28;20036;-73
2022/06/29 09:36:56;;;;;;;0.50;0.50;;;;;;;;;;5033082;28;20268;-77
2022/06/29 09:39:35;;;;;;;2.03;1.95;;;;;;;;;;5050342;28;20036;-74
2022/06/29 09:42:01;;;;;;;1.40;1.30;;;;;;;;;;5016053;28;20025;-75
2022/06/29 09:44:27;;;;;;;0.45;0.45;;;;;;;;;;5050543;28;20170;-74
2022/06/29 09:46:55;;;;;;;2.00;0.73;;;;;;;;;;5050772;28;20112;-75
2022/06/29 09:49:24;;;;;;;10.60;9.65;;;;;;;;;;5032553;28;20132;-74
2022/06/29 09:51:51;;;;;;;1.13;1.02;;;;;;;;;;5050766;28;20041;-73
2022/06/29 09:54:18;;;;;;;0.98;0.90;;;;;;;;;;5050929;28;20037;-73
2022/06/29 09:56:47;;;;;;;0.40;0.40;;;;;;;;;;5050185;28;20059;-74
2022/06/29 09:59:21;;;;;;;1.45;1.25;;;;;;;;;;5032391;28;20064;-75
2022/06/29 10:04:31;;;;;;;6.35;2.22;;;;;;;;;;5050069;28;20039;-78
2022/06/29 10:06:57;;;;;;;6.10;1.73;;;;;;;;;;5050185;28;20041;-74
2022/06/29 10:09:22;;;;;;;10.55;3.47;;;;;;;;;;5032648;28;20098;-75
2022/06/29 10:14:59;;;;;;;1.63;0.77;;;;;;;;;;5032328;28;20044;-74
2022/06/29 10:17:31;;;;;;;5.05;2.33;;;;;;;;;;5049721;28;20119;-75
2022/06/29 10:20:17;;;;;;;3.47;1.70;;;;;;;;;;5032262;28;20031;-73
2022/06/29 10:22:43;;;;;;;6.38;2.95;;;;;;;;;;5032899;28;20049;-74
2022/06/29 10:25:11;;;;;;;3.75;1.95;;;;;;;;;;5050080;28;20381;-78
2022/06/29 10:27:37;;;;;;;11.47;3.33;;;;;;;;;;5050120;28;20039;-75
2022/06/29 10:30:18;;;;;;;0.50;0.50;;;;;;;;;;5032399;28;20287;-74
2022/06/29 10:32:44;;;;;;;16.52;4.32;;;;;;;;;;5031869;28;20033;-76
2022/06/29 10:35:10;;;;;;;0.57;0.57;;;;;;;;;;5049724;28;20120;-74
2022/06/29 10:37:49;;;;;;;6.65;2.28;;;;;;;;;;5049520;28;20041;-79
2022/06/29 10:40:15;;;;;;;6.75;2.13;;;;;;;;;;5031218;28;20395;-75
2022/06/29 10:45:26;;;;;;;14.45;4.30;;;;;;;;;;5049605;28;20044;-74
2022/06/29 10:47:54;;;;;;;7.00;2.25;;;;;;;;;;5049485;28;20029;-77
2022/06/29 10:52:46;;;;;;;18.58;4.15;;;;;;;;;;5030535;28;20040;-74
2022/06/29 10:55:12;;;;;;;15.00;2.78;;;;;;;;;;5049034;28;20056;-79
2022/06/29 10:57:44;;;;;;;7.10;2.38;;;;;;;;;;5048076;28;20033;-75
2022/06/29 11:00:30;;;;;;;9.20;2.55;;;;;;;;;;5049339;28;20029;-77
2022/06/29 11:02:56;;;;;;;12.10;3.20;;;;;;;;;;5048156;28;20446;-76
2022/06/29 11:05:22;;;;;;;7.18;1.80;;;;;;;;;;5031561;28;20028;-75
2022/06/29 11:13:24;;;;;;;7.43;3.13;;;;;;;;;;5049235;28;20369;-75
2022/06/29 11:15:54;;;;;;;14.93;4.68;;;;;;;;;;5053556;28;20481;-74
2022/06/29 11:18:21;;;;;;;5.78;1.15;;;;;;;;;;5053063;28;20744;-75
2022/06/29 11:20:50;;;;;;;11.70;2.75;;;;;;;;;;5053354;28;20033;-75
2022/06/29 11:23:17;;;;;;;10.55;4.05;;;;;;;;;;5035416;28;20476;-76
2022/06/29 11:25:45;;;;;;;11.38;3.00;;;;;;;;;;5053677;28;20029;-76
2022/06/29 11:28:11;;;;;;;16.67;3.63;;;;;;;;;;5053551;28;20068;-75
2022/06/29 11:30:37;;;;;;;7.18;2.90;;;;;;;;;;5053110;28;20114;-75
2022/06/29 11:33:10;;;;;;;5.40;2.80;;;;;;;;;;5053249;28;20036;-74
2022/06/29 11:35:39;;;;;;;5.13;1.30;;;;;;;;;;5053099;28;20029;-74
2022/06/29 11:38:05;;;;;;;;;;;;;;;;;;5053119;28;20037;-75
2022/06/29 11:40:34;;;;;;;5.85;2.53;;;;;;;;;;5052873;28;19936;-75
2022/06/29 11:43:07;;;;;;;10.98;3.60;;;;;;;;;;5053109;28;20353;-74
2022/06/29 11:45:39;;;;;;;11.13;5.53;;;;;;;;;;5052811;28;20928;-74
2022/06/29 11:48:26;;;;;;;7.50;4.05;;;;;;;;;;5052876;28;20123;-74
2022/06/29 11:50:51;;;;;;;15.70;4.82;;;;;;;;;;5052696;28;20131;-78
2022/06/29 11:53:36;;;;;;;13.27;4.30;;;;;;;;;;5034927;28;20515;-74
2022/06/29 11:56:06;;;;;;;8.00;3.20;;;;;;;;;;5034863;28;20073;-75
2022/06/29 11:58:32;;;;;;;12.27;4.53;;;;;;;;;;5034612;28;20033;-74
2022/06/29 12:00:57;;;;;;;9.48;3.53;;;;;;;;;;5052689;28;20396;-74
2022/06/29 12:03:23;;;;;;;13.07;4.32;;;;;;;;;;5052238;28;20028;-76
2022/06/29 12:05:56;;;;;;;7.28;2.92;;;;;;;;;;5052376;28;20048;-74
2022/06/29 12:08:21;;;;;;;9.55;3.45;;;;;;;;;;5034258;28;20486;-77
2022/06/29 12:10:47;;;;;;;11.75;3.83;;;;;;;;;;5018008;28;20167;-78
2022/06/29 12:13:12;;;;;;;7.50;2.15;;;;;;;;;;5052460;28;20155;-77
2022/06/29 12:15:38;;;;;;;4.13;2.38;;;;;;;;;;5052458;28;20083;-73
2022/06/29 12:18:03;;;;;;;15.43;2.60;;;;;;;;;;5052011;28;20384;-75
2022/06/29 12:20:29;;;;;;;5.40;2.45;;;;;;;;;;5051977;28;20044;-75
2022/06/29 12:22:54;;;;;;;7.18;2.45;;;;;;;;;;5052313;28;20380;-75
2022/06/29 12:25:22;;;;;;;13.70;3.08;;;;;;;;;;5033463;28;20542;-74
2022/06/29 12:27:47;;;;;;;19.52;3.65;;;;;;;;;;5052024;28;20132;-74
2022/06/29 12:30:13;;;;;;;11.38;3.85;;;;;;;;;;5051804;28;20619;-74
2022/06/29 12:32:38;;;;;;;2.05;1.27;;;;;;;;;;5052065;28;20192;-75
2022/06/29 12:35:04;;;;;;;6.93;2.25;;;;;;;;;;5051341;28;20049;-74
2022/06/29 12:37:30;;;;;;;0.50;0.50;;;;;;;;;;5051126;28;20079;-74
2022/06/29 12:39:55;;;;;;;11.43;2.55;;;;;;;;;;5051323;28;20043;-74
2022/06/29 12:42:21;;;;;;;14.65;2.67;;;;;;;;;;5051599;28;20029;-73
2022/06/29 12:44:47;;;;;;;10.75;2.80;;;;;;;;;;5034110;28;20036;-73
2022/06/29 12:47:12;;;;;;;5.30;1.98;;;;;;;;;;5033672;28;20033;-78
2022/06/29 12:49:38;;;;;;;3.60;1.70;;;;;;;;;;5051650;28;20035;-72
2022/06/29 12:52:03;;;;;;;8.18;2.22;;;;;;;;;;5051895;28;20120;-76
2022/06/29 12:54:29;;;;;;;4.28;2.30;;;;;;;;;;5051727;28;20036;-75
2022/06/29 12:56:55;;;;;;;4.80;2.15;;;;;;;;;;5051354;28;20388;-75
2022/06/29 12:59:21;;;;;;;1.75;1.10;;;;;;;;;;5051436;28;20021;-74
2022/06/29 13:01:47;;;;;;;15.95;2.92;;;;;;;;;;5054803;28;20033;-74
2022/06/29 13:04:14;;;;;;;0.95;0.80;;;;;;;;;;5059070;28;20036;-73
2022/06/29 13:06:40;;;;;;;3.05;1.88;;;;;;;;;;5057961;28;20123;-74
2022/06/29 13:09:06;;;;;;;3.90;1.52;;;;;;;;;;5058187;28;20506;-78
2022/06/29 13:11:31;;;;;;;7.35;1.88;;;;;;;;;;5036862;28;20049;-74
2022/06/29 13:13:57;;;;;;;5.25;1.88;;;;;;;;;;5052083;28;20033;-74
2022/06/29 13:16:23;;;;;;;1.42;0.65;;;;;;;;;;5052022;28;20488;-75
2022/06/29 13:18:48;;;;;;;8.15;2.00;;;;;;;;;;5051499;28;20353;-75
2022/06/29 13:21:13;;;;;;;7.35;1.92;;;;;;;;;;5033581;28;20550;-74
2022/06/29 13:23:39;;;;;;;10.73;2.10;;;;;;;;;;5050895;28;20413;-75
2022/06/29 13:26:05;;;;;;;6.68;1.40;;;;;;;;;;5051229;28;20061;-75
2022/06/29 13:28:30;;;;;;;5.93;1.77;;;;;;;;;;5033262;28;20039;-76
2022/06/29 13:30:56;;;;;;;12.85;2.38;;;;;;;;;;5050956;28;20049;-74
2022/06/29 13:33:22;;;;;;;6.05;1.95;;;;;;;;;;5050729;28;20044;-76
2022/06/29 13:35:47;;;;;;;12.02;1.88;;;;;;;;;;5051031;28;20557;-75
2022/06/29 13:38:13;;;;;;;4.80;1.35;;;;;;;;;;5028647;28;20041;-74
2022/06/29 13:52:19;;;;;;;5.78;1.85;;;;;;;;;;5076373;28;20630;-77
2022/06/29 13:54:45;;;;;;;3.92;2.00;;;;;;;;;;5103115;28;20039;-74
2022/06/29 13:57:10;;;;;;;5.72;1.33;;;;;;;;;;5101213;28;20031;-74
2022/06/29 13:59:36;;;;;;;1.17;0.70;;;;;;;;;;5101928;28;20457;-75
2022/06/29 14:02:02;;;;;;;5.97;2.08;;;;;;;;;;5098652;28;20390;-74
2022/06/29 14:04:28;;;;;;;5.10;1.88;;;;;;;;;;5104014;28;20035;-74
2022/06/29 14:06:53;;;;;;;5.10;1.63;;;;;;;;;;5081139;28;20506;-74
2022/06/29 14:09:20;;;;;;;4.90;1.80;;;;;;;;;;5103278;28;20036;-75
2022/06/29 14:11:46;;;;;;;6.75;2.25;;;;;;;;;;5105396;28;20063;-76
2022/06/29 14:14:12;;;;;;;4.88;1.48;;;;;;;;;;5103110;28;20048;-76
2022/06/29 14:16:38;;;;;;;6.38;2.08;;;;;;;;;;5104086;28;20047;-75
2022/06/29 14:19:03;;;;;;;3.03;1.02;;;;;;;;;;5103499;28;20024;-76
2022/06/29 14:21:29;;;;;;;0.50;0.50;;;;;;;;;;5102579;28;20039;-77
2022/06/29 14:23:54;;;;;;;5.22;1.48;;;;;;;;;;5104490;28;20032;-75
2022/06/29 14:26:20;;;;;;;3.05;1.00;;;;;;;;;;5102352;28;20032;-77
2022/06/29 14:28:45;;;;;;;4.15;1.20;;;;;;;;;;5102511;28;20047;-75
2022/06/29 14:31:11;;;;;;;7.03;1.35;;;;;;;;;;5086612;28;20448;-76
2022/06/29 14:33:37;;;;;;;5.90;2.63;;;;;;;;;;5086688;28;20032;-74
2022/06/29 14:36:02;;;;;;;6.53;1.40;;;;;;;;;;5103662;28;20035;-76
2022/06/29 14:38:28;;;;;;;2.17;1.23;;;;;;;;;;5086522;28;20474;-76
2022/06/29 14:40:53;;;;;;;8.38;2.20;;;;;;;;;;5105049;28;20122;-77
2022/06/29 14:43:19;;;;;;;3.15;1.48;;;;;;;;;;5084897;28;20405;-75
2022/06/29 14:45:45;;;;;;;6.00;2.50;;;;;;;;;;5102466;28;20068;-75
2022/06/29 14:48:10;;;;;;;3.22;1.35;;;;;;;;;;5089703;28;20052;-76
2022/06/29 14:50:36;;;;;;;7.60;2.15;;;;;;;;;;5084422;28;20410;-76
2022/06/29 14:53:01;;;;;;;2.78;2.28;;;;;;;;;;5084479;28;20368;-75
2022/06/29 14:55:27;;;;;;;4.82;1.65;;;;;;;;;;5084124;28;20047;-74
2022/06/29 14:57:52;;;;;;;4.20;1.77;;;;;;;;;;5066103;28;20036;-74
2022/06/29 15:00:18;;;;;;;5.05;1.92;;;;;;;;;;5070371;28;20503;-80
2022/06/29 15:02:43;;;;;;;7.78;1.58;;;;;;;;;;5053328;28;20379;-74
2022/06/29 15:05:09;;;;;;;16.88;4.47;;;;;;;;;;5070123;28;20104;-73
2022/06/29 15:07:34;;;;;;;3.50;1.23;;;;;;;;;;5070063;28;20123;-74
2022/06/29 15:10:03;;;;;;;4.47;1.88;;;;;;;;;;5070456;28;20068;-74
2022/06/29 15:12:29;;;;;;;1.55;0.65;;;;;;;;;;5070239;28;20037;-76
2022/06/29 15:14:54;;;;;;;3.85;1.50;;;;;;;;;;5070626;28;20820;-76
2022/06/29 15:17:20;;;;;;;0.95;0.45;;;;;;;;;;5070523;28;20078;-74